createdAt,value
2023-02-23T00:00:08.546Z,7.30
2023-02-23T00:02:13.491Z,6.90
2023-02-23T00:04:15.763Z,6.40
2023-02-23T00:06:19.310Z,8.17
2023-02-23T00:08:23.584Z,8.43
2023-02-23T00:10:30.490Z,6.90
2023-02-23T00:12:33.036Z,6.77
2023-02-23T00:14:37.781Z,7.00
2023-02-23T00:16:40.222Z,7.30
2023-02-23T00:19:00.369Z,7.20
2023-02-23T00:21:02.533Z,7.03
2023-02-23T00:23:04.823Z,7.07
2023-02-23T00:25:11.746Z,7.70
2023-02-23T00:27:18.975Z,7.63
2023-02-23T00:29:22.799Z,7.10
2023-02-23T00:31:27.257Z,7.07
2023-02-23T00:33:34.718Z,7.63
2023-02-23T00:35:36.885Z,7.97
2023-02-23T00:37:39.034Z,7.97
2023-02-23T00:39:41.202Z,7.50
2023-02-23T00:41:43.509Z,8.20
2023-02-23T00:43:48.595Z,7.23
2023-02-23T00:45:50.813Z,8.70
2023-02-23T00:47:52.977Z,7.40
2023-02-23T00:49:55.142Z,8.63
2023-02-23T00:51:57.362Z,7.80
2023-02-23T00:54:01.124Z,7.73
2023-02-23T00:56:07.189Z,8.43
2023-02-23T00:58:14.052Z,8.67
2023-02-23T01:00:19.663Z,7.90
2023-02-23T01:02:21.857Z,8.33
2023-02-23T01:04:24.893Z,8.33
2023-02-23T01:06:26.997Z,8.50
2023-02-23T01:08:30.226Z,6.60
2023-02-23T01:10:32.378Z,7.43
2023-02-23T01:12:34.566Z,7.50
2023-02-23T01:14:38.055Z,7.47
2023-02-23T01:16:40.291Z,7.30
2023-02-23T01:18:44.712Z,7.47
2023-02-23T01:20:47.161Z,7.47
2023-02-23T01:22:51.754Z,6.80
2023-02-23T01:24:53.932Z,7.40
2023-02-23T01:26:56.181Z,7.80
2023-02-23T01:29:01.058Z,8.70
2023-02-23T01:31:09.183Z,8.10
2023-02-23T01:33:13.769Z,8.87
2023-02-23T01:35:16.040Z,9.47
2023-02-23T01:37:18.266Z,8.27
2023-02-23T01:39:21.030Z,8.40
2023-02-23T01:41:24.304Z,8.87
2023-02-23T01:43:27.651Z,8.13
2023-02-23T01:45:34.899Z,9.43
2023-02-23T01:47:37.105Z,8.20
2023-02-23T01:49:40.264Z,8.43
2023-02-23T01:51:56.881Z,8.30
2023-02-23T01:54:08.406Z,8.10
2023-02-23T01:56:16.202Z,8.30
2023-02-23T01:58:20.047Z,9.37
2023-02-23T02:00:25.846Z,9.50
2023-02-23T02:02:33.672Z,8.30
2023-02-23T02:04:44.719Z,9.93
2023-02-23T02:06:48.858Z,9.47
2023-02-23T02:08:54.887Z,8.20
2023-02-23T02:10:57.587Z,8.80
2023-02-23T02:12:59.764Z,8.90
2023-02-23T02:15:05.044Z,8.50
2023-02-23T02:17:15.886Z,8.00
2023-02-23T02:19:46.869Z,8.33
2023-02-23T02:22:26.431Z,9.63
2023-02-23T02:24:37.576Z,9.07
2023-02-23T02:27:00.633Z,8.13
2023-02-23T02:29:31.344Z,8.97
2023-02-23T02:31:43.155Z,8.57
2023-02-23T02:34:00.737Z,9.87
2023-02-23T02:36:33.679Z,9.03
2023-02-23T02:38:58.859Z,9.60
2023-02-23T02:41:18.923Z,9.00
2023-02-23T02:44:00.104Z,8.80
2023-02-23T02:46:09.702Z,9.20
2023-02-23T02:48:38.742Z,8.97
2023-02-23T02:50:43.583Z,9.47
2023-02-23T02:53:09.540Z,8.37
2023-02-23T02:55:16.894Z,9.13
2023-02-23T02:57:21.135Z,10.00
2023-02-23T02:59:42.187Z,8.40
2023-02-23T03:02:03.560Z,8.97
2023-02-23T03:04:42.087Z,9.03
2023-02-23T03:07:06.482Z,8.77
2023-02-23T03:09:32.817Z,7.57
2023-02-23T03:12:10.505Z,9.53
2023-02-23T03:14:49.470Z,8.33
2023-02-23T03:17:14.444Z,8.60
2023-02-23T03:19:47.626Z,9.37
2023-02-23T03:22:38.762Z,9.10
2023-02-23T03:25:09.805Z,7.87
2023-02-23T03:27:47.342Z,9.13
2023-02-23T03:30:19.842Z,9.50
2023-02-23T03:33:04.112Z,10.10
2023-02-23T03:35:29.035Z,9.23
2023-02-23T03:38:14.108Z,8.27
2023-02-23T03:40:41.083Z,9.60
2023-02-23T03:43:02.392Z,9.10
2023-02-23T03:45:28.021Z,9.30
2023-02-23T03:47:52.755Z,8.80
2023-02-23T03:50:14.718Z,9.73
2023-02-23T03:52:39.238Z,8.97
2023-02-23T03:55:04.859Z,10.00
2023-02-23T03:57:28.963Z,9.97
2023-02-23T03:59:53.437Z,9.10
2023-02-23T04:02:14.451Z,9.80
2023-02-23T04:04:37.313Z,8.80
2023-02-23T04:07:02.167Z,9.30
2023-02-23T04:09:25.439Z,9.60
2023-02-23T04:11:52.030Z,8.07
2023-02-23T04:13:58.711Z,10.40
2023-02-23T04:16:04.350Z,9.20
2023-02-23T04:18:07.923Z,10.43
2023-02-23T04:20:13.757Z,11.00
2023-02-23T04:22:15.861Z,9.27
2023-02-23T04:24:18.038Z,10.27
2023-02-23T04:26:20.229Z,9.87
2023-02-23T04:28:23.478Z,11.33
2023-02-23T04:30:25.952Z,10.20
2023-02-23T04:32:28.266Z,9.90
2023-02-23T04:34:30.422Z,10.47
2023-02-23T04:36:32.510Z,10.37
2023-02-23T04:38:34.676Z,10.13
2023-02-23T04:40:37.108Z,9.63
2023-02-23T04:42:40.342Z,9.70
2023-02-23T04:44:42.625Z,10.03
2023-02-23T04:46:44.773Z,9.83
2023-02-23T04:48:47.363Z,10.70
2023-02-23T04:50:53.063Z,8.50
2023-02-23T04:52:55.217Z,9.73
2023-02-23T04:54:57.719Z,9.57
2023-02-23T04:57:00.096Z,9.47
2023-02-23T04:59:02.265Z,9.90
2023-02-23T05:01:07.513Z,8.47
2023-02-23T05:03:10.705Z,10.20
2023-02-23T05:05:13.161Z,10.27
2023-02-23T05:07:15.273Z,9.00
2023-02-23T05:09:17.793Z,11.30
2023-02-23T05:11:20.179Z,10.03
2023-02-23T05:13:22.985Z,10.50
2023-02-23T05:15:25.198Z,9.33
2023-02-23T05:17:27.440Z,9.30
2023-02-23T05:19:29.763Z,9.90
2023-02-23T05:21:31.932Z,11.30
2023-02-23T05:23:35.326Z,10.37
2023-02-23T05:25:40.481Z,10.73
2023-02-23T05:27:42.664Z,9.33
2023-02-23T05:29:44.959Z,11.00
2023-02-23T05:31:48.691Z,9.63
2023-02-23T05:33:50.918Z,9.43
2023-02-23T05:35:53.007Z,11.00
2023-02-23T05:37:55.274Z,9.33
2023-02-23T05:39:57.449Z,10.37
2023-02-23T05:41:59.651Z,9.57
2023-02-23T05:44:01.965Z,10.40
2023-02-23T05:46:08.753Z,12.20
2023-02-23T05:48:14.048Z,12.80
2023-02-23T05:50:16.214Z,11.73
2023-02-23T05:52:18.306Z,12.77
2023-02-23T05:54:20.443Z,12.97
2023-02-23T05:56:23.008Z,13.03
2023-02-23T05:58:25.202Z,11.97
2023-02-23T06:00:27.327Z,11.87
2023-02-23T06:02:29.450Z,12.87
2023-02-23T06:04:32.307Z,13.00
2023-02-23T06:06:34.708Z,13.17
2023-02-23T06:08:37.006Z,12.93
2023-02-23T06:10:39.144Z,14.37
2023-02-23T06:12:41.228Z,13.90
2023-02-23T06:14:43.496Z,13.13
2023-02-23T06:16:45.658Z,13.53
2023-02-23T06:18:47.788Z,12.77
2023-02-23T06:20:49.921Z,14.20
2023-02-23T06:22:52.056Z,13.50
2023-02-23T06:24:54.164Z,12.47
2023-02-23T06:26:56.276Z,12.43
2023-02-23T06:28:58.407Z,13.40
2023-02-23T06:31:00.719Z,12.83
2023-02-23T06:33:03.139Z,12.90
2023-02-23T06:35:06.469Z,13.57
2023-02-23T06:37:09.815Z,13.70
2023-02-23T06:39:12.042Z,13.50
2023-02-23T06:41:14.220Z,15.80
2023-02-23T06:43:16.409Z,16.67
2023-02-23T06:45:21.622Z,14.03
2023-02-23T06:47:23.818Z,15.80
2023-02-23T06:49:25.916Z,15.60
2023-02-23T06:51:28.106Z,16.30
2023-02-23T06:53:30.850Z,15.77
2023-02-23T06:55:32.976Z,13.50
2023-02-23T06:57:35.173Z,15.60
2023-02-23T06:59:37.618Z,17.10
2023-02-23T07:01:39.749Z,18.30
2023-02-23T07:03:42.671Z,21.90
2023-02-23T07:05:45.068Z,30.50
2023-02-23T07:07:47.258Z,33.00
2023-02-23T07:09:49.362Z,32.23
2023-02-23T07:11:51.825Z,28.57
2023-02-23T07:13:54.024Z,30.27
2023-02-23T07:15:57.724Z,28.30
2023-02-23T07:17:59.910Z,27.90
2023-02-23T07:20:02.647Z,27.00
2023-02-23T07:22:05.984Z,25.23
2023-02-23T07:24:08.744Z,20.70
2023-02-23T07:26:11.470Z,21.63
2023-02-23T07:28:14.298Z,20.93
2023-02-23T07:30:18.240Z,22.97
2023-02-23T07:32:20.402Z,23.83
2023-02-23T07:34:22.723Z,20.70
2023-02-23T07:36:24.924Z,20.10
2023-02-23T07:38:27.502Z,19.90
2023-02-23T07:40:29.576Z,21.67
2023-02-23T07:42:31.583Z,23.77
2023-02-23T07:44:33.574Z,32.37
2023-02-23T07:46:35.662Z,27.87
2023-02-23T07:48:39.010Z,23.27
2023-02-23T07:50:41.930Z,22.37
2023-02-23T07:52:44.396Z,22.43
2023-02-23T07:54:46.670Z,20.53
2023-02-23T07:56:48.704Z,20.27
2023-02-23T07:58:50.883Z,18.43
2023-02-23T08:00:53.015Z,18.50
2023-02-23T08:02:55.060Z,17.80
2023-02-23T08:04:57.065Z,19.87
2023-02-23T08:06:59.107Z,16.93
2023-02-23T08:09:02.302Z,20.27
2023-02-23T08:11:05.323Z,19.40
2023-02-23T08:13:07.411Z,18.73
2023-02-23T08:15:10.410Z,18.10
2023-02-23T08:17:12.617Z,17.40
2023-02-23T08:19:14.606Z,17.03
2023-02-23T08:21:16.660Z,16.53
2023-02-23T08:23:18.772Z,20.50
2023-02-23T08:25:20.824Z,25.90
2023-02-23T08:27:22.901Z,25.70
2023-02-23T08:29:25.092Z,27.17
2023-02-23T08:31:27.735Z,21.60
2023-02-23T08:33:31.639Z,22.73
2023-02-23T08:35:33.905Z,27.73
2023-02-23T08:37:36.006Z,27.53
2023-02-23T08:39:38.068Z,25.90
2023-02-23T08:41:40.886Z,24.33
2023-02-23T08:43:44.146Z,21.67
2023-02-23T08:45:46.272Z,19.50
2023-02-23T08:47:48.282Z,18.70
2023-02-23T08:49:50.944Z,19.57
2023-02-23T08:51:53.036Z,19.13
2023-02-23T08:53:57.262Z,21.00
2023-02-23T08:56:01.138Z,20.60
2023-02-23T08:58:03.219Z,23.10
2023-02-23T09:00:14.008Z,22.10
2023-02-23T09:02:16.094Z,22.27
2023-02-23T09:04:18.446Z,18.67
2023-02-23T09:06:23.644Z,19.27
2023-02-23T09:08:25.810Z,20.30
2023-02-23T09:10:29.045Z,20.00
2023-02-23T09:12:31.042Z,21.20
2023-02-23T09:14:33.113Z,21.20
2023-02-23T09:16:35.782Z,23.60
2023-02-23T09:18:38.206Z,23.33
2023-02-23T09:20:44.650Z,24.00
2023-02-23T09:22:49.473Z,22.53
2023-02-23T09:24:51.616Z,23.60
2023-02-23T09:26:53.852Z,23.10
2023-02-23T09:28:57.946Z,22.77
2023-02-23T09:31:07.241Z,22.00
2023-02-23T09:33:09.909Z,23.70
2023-02-23T09:35:11.941Z,25.23
2023-02-23T09:37:14.090Z,24.43
2023-02-23T09:39:16.072Z,26.83
2023-02-23T09:41:46.388Z,24.93
2023-02-23T09:44:17.936Z,21.87
2023-02-23T09:46:32.021Z,22.97
2023-02-23T09:48:34.248Z,24.17
2023-02-23T09:50:37.915Z,26.33
2023-02-23T09:52:42.708Z,25.50
2023-02-23T09:54:44.682Z,24.93
2023-02-23T09:56:48.072Z,25.13
2023-02-23T09:58:50.427Z,25.70
2023-02-23T10:01:14.033Z,29.10
2023-02-23T10:03:19.040Z,26.50
2023-02-23T10:05:24.064Z,27.50
2023-02-23T10:07:50.841Z,32.03
2023-02-23T10:10:29.035Z,27.73
2023-02-23T10:12:49.843Z,26.40
2023-02-23T10:15:06.721Z,29.30
2023-02-23T10:17:19.667Z,25.97
2023-02-23T10:19:35.084Z,27.00
2023-02-23T10:21:39.932Z,26.50
2023-02-23T10:23:46.686Z,26.87
2023-02-23T10:25:50.844Z,28.40
2023-02-23T10:27:55.754Z,28.73
2023-02-23T10:30:00.774Z,29.87
2023-02-23T10:32:06.530Z,28.10
2023-02-23T10:34:16.999Z,26.27
2023-02-23T10:36:28.365Z,25.83
2023-02-23T10:38:31.141Z,27.70
2023-02-23T10:40:34.302Z,27.07
2023-02-23T10:42:36.393Z,28.10
2023-02-23T10:44:38.344Z,28.07
2023-02-23T10:46:40.830Z,31.23
2023-02-23T10:48:43.302Z,30.00
2023-02-23T10:50:45.938Z,32.77
2023-02-23T10:52:49.421Z,31.60
2023-02-23T10:54:52.176Z,30.77
2023-02-23T10:56:54.274Z,30.63
2023-02-23T10:58:58.235Z,29.17
2023-02-23T11:01:02.424Z,31.50
2023-02-23T11:03:23.327Z,30.27
2023-02-23T11:05:53.656Z,31.10
2023-02-23T11:08:21.693Z,31.77
2023-02-23T11:10:27.473Z,34.27
2023-02-23T11:12:41.907Z,34.47
2023-02-23T11:14:43.970Z,34.40
2023-02-23T11:16:46.025Z,34.77
2023-02-23T11:18:56.694Z,35.17
2023-02-23T11:20:59.246Z,34.67
2023-02-23T11:23:14.692Z,35.90
2023-02-23T11:25:28.210Z,34.87
2023-02-23T11:27:30.349Z,33.50
2023-02-23T11:29:38.738Z,32.57
2023-02-23T11:31:47.603Z,33.47
2023-02-23T11:33:50.136Z,33.97
2023-02-23T11:36:00.043Z,36.27
2023-02-23T11:38:25.414Z,35.27
2023-02-23T11:40:29.909Z,34.63
2023-02-23T11:42:35.745Z,36.40
2023-02-23T11:44:37.721Z,36.20
2023-02-23T11:46:45.800Z,35.17
2023-02-23T11:48:49.538Z,36.13
2023-02-23T11:50:52.566Z,37.13
2023-02-23T11:53:16.713Z,35.17
2023-02-23T11:55:20.091Z,35.20
2023-02-23T11:57:33.716Z,38.90
2023-02-23T11:59:38.489Z,39.27
2023-02-23T12:01:44.554Z,38.23
2023-02-23T12:03:55.126Z,39.00
2023-02-23T12:05:59.146Z,38.73
2023-02-23T12:08:11.697Z,40.47
2023-02-23T12:10:22.078Z,42.03
2023-02-23T12:12:24.564Z,43.00
2023-02-23T12:14:38.153Z,41.50
2023-02-23T12:16:44.712Z,44.83
2023-02-23T12:18:53.289Z,44.50
2023-02-23T12:20:58.243Z,43.33
2023-02-23T12:23:10.611Z,44.50
2023-02-23T12:25:27.018Z,42.03
2023-02-23T12:27:42.379Z,43.10
2023-02-23T12:30:09.114Z,42.90
2023-02-23T12:32:25.549Z,44.80
2023-02-23T12:34:45.744Z,44.57
2023-02-23T12:36:53.252Z,42.47
2023-02-23T12:39:00.769Z,43.30
2023-02-23T12:41:14.128Z,47.07
2023-02-23T12:43:21.850Z,44.07
2023-02-23T12:45:39.711Z,46.13
2023-02-23T12:47:49.612Z,44.20
2023-02-23T12:49:57.551Z,42.73
2023-02-23T12:52:17.857Z,43.17
2023-02-23T12:54:20.293Z,43.53
2023-02-23T12:56:42.486Z,48.60
2023-02-23T12:59:21.927Z,41.90
2023-02-23T13:01:33.797Z,44.43
2023-02-23T13:03:42.419Z,43.03
2023-02-23T13:06:16.866Z,44.57
2023-02-23T13:08:47.620Z,44.10
2023-02-23T13:11:04.290Z,47.10
2023-02-23T13:13:16.218Z,44.83
2023-02-23T13:15:40.738Z,46.90
2023-02-23T13:17:59.148Z,48.30
2023-02-23T13:20:16.092Z,46.37
2023-02-23T13:22:24.081Z,46.77
2023-02-23T13:24:37.114Z,46.43
2023-02-23T13:27:10.579Z,49.27
2023-02-23T13:29:27.143Z,48.50
2023-02-23T13:31:35.754Z,51.67
2023-02-23T13:33:44.224Z,49.83
2023-02-23T13:35:46.762Z,50.97
2023-02-23T13:37:59.642Z,48.97
2023-02-23T13:40:25.064Z,48.40
2023-02-23T13:42:33.331Z,49.27
2023-02-23T13:44:52.768Z,47.63
2023-02-23T13:46:57.636Z,49.93
2023-02-23T13:49:43.345Z,48.33
2023-02-23T13:51:51.786Z,47.87
2023-02-23T13:54:12.381Z,48.37
2023-02-23T13:56:21.280Z,54.97
2023-02-23T13:58:31.133Z,49.50
2023-02-23T14:00:34.315Z,49.83
2023-02-23T14:02:40.811Z,50.17
2023-02-23T14:04:43.464Z,49.57
2023-02-23T14:07:16.601Z,51.93
2023-02-23T14:09:22.091Z,50.77
2023-02-23T14:11:39.218Z,51.07
2023-02-23T14:13:42.903Z,52.40
2023-02-23T14:15:53.744Z,53.50
2023-02-23T14:17:55.864Z,52.07
2023-02-23T14:20:24.369Z,54.20
2023-02-23T14:22:34.120Z,51.10
2023-02-23T14:24:36.318Z,49.30
2023-02-23T14:26:43.951Z,51.93
2023-02-23T14:28:51.705Z,49.60
2023-02-23T14:31:01.634Z,50.37
2023-02-23T14:33:20.232Z,51.90
2023-02-23T14:35:32.517Z,50.73
2023-02-23T14:37:36.440Z,52.30
2023-02-23T14:39:39.978Z,50.23
2023-02-23T14:41:59.296Z,50.67
2023-02-23T14:44:29.909Z,53.70
2023-02-23T14:46:35.064Z,49.57
2023-02-23T14:48:40.608Z,48.33
2023-02-23T14:50:43.438Z,49.37
2023-02-23T14:52:45.911Z,50.70
2023-02-23T14:54:48.308Z,51.07
2023-02-23T14:56:54.196Z,50.27
2023-02-23T14:58:56.617Z,49.77
2023-02-23T15:00:58.674Z,49.47
2023-02-23T15:03:14.834Z,52.50
2023-02-23T15:05:17.906Z,50.20
2023-02-23T15:07:27.911Z,51.40
2023-02-23T15:09:33.916Z,54.47
2023-02-23T15:11:37.199Z,53.33
2023-02-23T15:13:45.321Z,53.80
2023-02-23T15:15:49.718Z,53.73
2023-02-23T15:17:55.021Z,51.80
2023-02-23T15:20:14.651Z,50.03
2023-02-23T15:22:26.109Z,54.30
2023-02-23T15:24:32.458Z,51.53
2023-02-23T15:26:36.078Z,52.00
2023-02-23T15:28:40.555Z,51.27
2023-02-23T15:30:47.599Z,53.87
2023-02-23T15:32:50.743Z,51.27
2023-02-23T15:34:55.581Z,51.93
2023-02-23T15:37:00.710Z,50.70
2023-02-23T15:39:05.666Z,48.13
2023-02-23T15:41:15.338Z,52.63
2023-02-23T15:43:17.429Z,50.17
2023-02-23T15:45:31.552Z,54.57
2023-02-23T15:47:35.652Z,51.07
2023-02-23T15:49:42.565Z,53.33
2023-02-23T15:51:48.870Z,54.33
2023-02-23T15:53:51.203Z,51.90
2023-02-23T15:55:55.871Z,49.90
2023-02-23T15:58:02.852Z,54.03
2023-02-23T16:00:19.729Z,52.37
2023-02-23T16:02:24.048Z,54.50
2023-02-23T16:04:32.721Z,54.30
2023-02-23T16:06:37.408Z,52.33
2023-02-23T16:08:56.069Z,52.10
2023-02-23T16:11:13.198Z,53.40
2023-02-23T16:13:17.437Z,53.87
2023-02-23T16:15:24.632Z,53.50
2023-02-23T16:17:30.775Z,54.40
2023-02-23T16:19:32.782Z,51.67
2023-02-23T16:21:37.550Z,55.90
2023-02-23T16:23:45.596Z,53.30
2023-02-23T16:25:47.673Z,51.63
2023-02-23T16:27:55.724Z,51.97
2023-02-23T16:30:00.563Z,53.13
2023-02-23T16:32:03.597Z,52.90
2023-02-23T16:34:59.932Z,52.93
2023-02-23T16:37:04.953Z,52.77
2023-02-23T16:39:11.667Z,54.10
2023-02-23T16:41:20.537Z,54.87
2023-02-23T16:43:22.651Z,53.17
2023-02-23T16:45:26.606Z,53.60
2023-02-23T16:47:36.557Z,53.10
2023-02-23T16:49:38.734Z,56.93
2023-02-23T16:51:41.065Z,53.97
2023-02-23T16:53:43.953Z,52.83
2023-02-23T16:55:52.087Z,51.23
2023-02-23T16:57:59.441Z,53.40
2023-02-23T17:00:01.607Z,53.93
2023-02-23T17:02:03.649Z,52.80
2023-02-23T17:04:15.286Z,54.10
2023-02-23T17:06:17.307Z,61.80
2023-02-23T17:08:19.358Z,52.20
2023-02-23T17:10:27.137Z,55.27
2023-02-23T17:12:29.220Z,56.30
2023-02-23T17:14:33.065Z,53.27
2023-02-23T17:16:35.124Z,54.90
2023-02-23T17:18:40.661Z,52.77
2023-02-23T17:20:45.095Z,53.10
2023-02-23T17:22:50.480Z,52.50
2023-02-23T17:24:52.499Z,50.43
2023-02-23T17:26:55.508Z,55.33
2023-02-23T17:28:57.686Z,51.17
2023-02-23T17:31:00.695Z,55.40
2023-02-23T17:33:03.712Z,55.20
2023-02-23T17:35:06.616Z,54.13
2023-02-23T17:37:08.772Z,51.97
2023-02-23T17:39:14.153Z,53.53
2023-02-23T17:41:18.882Z,53.07
2023-02-23T17:43:23.841Z,51.13
2023-02-23T17:45:27.829Z,53.43
2023-02-23T17:47:31.141Z,53.43
2023-02-23T17:49:33.379Z,52.40
2023-02-23T17:51:35.565Z,50.73
2023-02-23T17:53:38.490Z,50.90
2023-02-23T17:55:40.617Z,54.77
2023-02-23T17:57:44.148Z,53.20
2023-02-23T17:59:46.260Z,52.07
2023-02-23T18:01:49.465Z,52.13
2023-02-23T18:03:51.741Z,55.00
2023-02-23T18:05:54.532Z,52.50
2023-02-23T18:07:56.697Z,53.00
2023-02-23T18:09:58.962Z,53.10
2023-02-23T18:12:01.156Z,54.63
2023-02-23T18:14:03.862Z,53.40
2023-02-23T18:16:10.587Z,53.93
2023-02-23T18:18:12.784Z,50.70
2023-02-23T18:20:16.227Z,55.03
2023-02-23T18:22:18.849Z,47.50
2023-02-23T18:24:21.106Z,54.20
2023-02-23T18:26:24.380Z,53.77
2023-02-23T18:28:26.611Z,53.67
2023-02-23T18:30:28.763Z,52.27
2023-02-23T18:32:30.961Z,51.40
2023-02-23T18:34:33.930Z,51.10
2023-02-23T18:36:38.727Z,51.47
2023-02-23T18:38:40.867Z,53.30
2023-02-23T18:40:43.076Z,52.17
2023-02-23T18:42:45.218Z,52.27
2023-02-23T18:44:47.399Z,50.70
2023-02-23T18:46:49.786Z,52.50
2023-02-23T18:48:52.030Z,51.03
2023-02-23T18:50:59.202Z,51.80
2023-02-23T18:53:05.125Z,49.73
2023-02-23T18:55:08.662Z,52.50
2023-02-23T18:57:10.796Z,47.67
2023-02-23T18:59:13.382Z,50.63
2023-02-23T19:01:22.618Z,51.30
2023-02-23T19:03:25.116Z,48.67
2023-02-23T19:05:27.397Z,52.63
2023-02-23T19:07:33.160Z,52.77
2023-02-23T19:09:39.666Z,50.90
2023-02-23T19:11:42.952Z,52.40
2023-02-23T19:13:45.046Z,54.00
2023-02-23T19:15:48.341Z,54.03
2023-02-23T19:17:50.485Z,55.97
2023-02-23T19:19:56.075Z,50.03
2023-02-23T19:21:58.845Z,53.40
2023-02-23T19:24:02.502Z,50.30
2023-02-23T19:26:05.541Z,53.43
2023-02-23T19:28:09.386Z,54.87
2023-02-23T19:30:13.284Z,53.17
2023-02-23T19:32:19.287Z,51.23
2023-02-23T19:34:21.521Z,46.83
2023-02-23T19:36:29.683Z,46.83
2023-02-23T19:38:32.108Z,44.33
2023-02-23T19:40:36.762Z,40.07
2023-02-23T19:42:43.626Z,42.00
2023-02-23T19:44:45.779Z,39.30
2023-02-23T19:46:48.250Z,39.10
2023-02-23T19:48:53.379Z,35.90
2023-02-23T19:50:55.496Z,35.13
2023-02-23T19:52:57.631Z,36.50
2023-02-23T19:54:59.788Z,32.40
2023-02-23T19:57:01.949Z,32.00
2023-02-23T19:59:04.833Z,33.90
2023-02-23T20:01:10.052Z,31.10
2023-02-23T20:03:14.344Z,32.00
2023-02-23T20:05:16.878Z,30.27
2023-02-23T20:07:19.199Z,29.50
2023-02-23T20:09:21.308Z,31.63
2023-02-23T20:11:23.880Z,32.10
2023-02-23T20:13:26.468Z,30.50
2023-02-23T20:15:28.589Z,29.20
2023-02-23T20:17:30.791Z,27.50
2023-02-23T20:19:32.942Z,26.43
2023-02-23T20:21:36.809Z,29.07
2023-02-23T20:23:40.316Z,29.30
2023-02-23T20:25:42.683Z,26.90
2023-02-23T20:27:44.925Z,27.40
2023-02-23T20:29:47.761Z,27.10
2023-02-23T20:31:51.234Z,26.90
2023-02-23T20:33:54.866Z,24.47
2023-02-23T20:35:57.406Z,24.70
2023-02-23T20:37:59.604Z,23.30
2023-02-23T20:40:01.787Z,22.80
2023-02-23T20:42:04.196Z,23.70
2023-02-23T20:44:06.306Z,25.30
2023-02-23T20:46:08.542Z,23.63
2023-02-23T20:48:10.720Z,23.50
2023-02-23T20:50:15.935Z,24.13
2023-02-23T20:52:18.082Z,23.40
2023-02-23T20:54:20.584Z,21.40
2023-02-23T20:56:23.164Z,21.33
2023-02-23T20:58:25.390Z,21.77
2023-02-23T21:00:32.218Z,23.43
2023-02-23T21:02:35.207Z,20.60
2023-02-23T21:04:38.886Z,20.37
2023-02-23T21:06:41.313Z,19.97
2023-02-23T21:08:46.267Z,19.80
2023-02-23T21:10:50.221Z,21.43
2023-02-23T21:12:53.085Z,19.60
2023-02-23T21:14:55.343Z,21.10
2023-02-23T21:16:57.460Z,21.60
2023-02-23T21:19:05.446Z,20.50
2023-02-23T21:21:10.033Z,21.17
2023-02-23T21:23:12.625Z,20.30
2023-02-23T21:25:15.661Z,22.27
2023-02-23T21:27:17.859Z,22.40
2023-02-23T21:29:23.820Z,21.40
2023-02-23T21:31:26.270Z,20.10
2023-02-23T21:33:28.557Z,21.70
2023-02-23T21:35:30.790Z,22.63
2023-02-23T21:37:33.183Z,20.33
2023-02-23T21:39:38.132Z,21.40
2023-02-23T21:41:40.362Z,22.10
2023-02-23T21:43:43.841Z,22.57
2023-02-23T21:45:46.739Z,22.03
2023-02-23T21:47:49.195Z,21.17
2023-02-23T21:49:51.402Z,19.73
2023-02-23T21:51:55.201Z,21.63
2023-02-23T21:54:00.156Z,21.00
2023-02-23T21:56:13.290Z,20.77
2023-02-23T21:58:15.388Z,21.43
2023-02-23T22:00:19.118Z,20.90
2023-02-23T22:02:21.413Z,20.53
2023-02-23T22:04:23.588Z,21.70
2023-02-23T22:06:28.675Z,18.67
2023-02-23T22:08:30.852Z,20.60
2023-02-23T22:10:33.171Z,19.07
2023-02-23T22:12:35.270Z,18.30
2023-02-23T22:14:37.469Z,18.10
2023-02-23T22:16:43.400Z,16.70
2023-02-23T22:18:46.236Z,15.90
2023-02-23T22:20:56.397Z,16.33
2023-02-23T22:22:58.561Z,15.97
2023-02-23T22:25:00.717Z,16.30
2023-02-23T22:27:04.145Z,14.50
2023-02-23T22:29:07.498Z,15.13
2023-02-23T22:31:12.642Z,13.93
2023-02-23T22:33:15.022Z,14.17
2023-02-23T22:35:17.367Z,13.63
2023-02-23T22:37:21.972Z,13.40
2023-02-23T22:39:24.150Z,13.20
2023-02-23T22:41:29.649Z,13.77
2023-02-23T22:43:34.191Z,12.97
2023-02-23T22:45:37.946Z,14.00
2023-02-23T22:47:40.317Z,14.00
2023-02-23T22:49:42.424Z,16.37
2023-02-23T22:51:44.630Z,13.37
2023-02-23T22:53:46.820Z,14.67
2023-02-23T22:55:51.858Z,14.60
2023-02-23T22:57:56.055Z,15.20
2023-02-23T23:00:10.357Z,14.73
2023-02-23T23:02:12.872Z,15.07
2023-02-23T23:04:15.231Z,14.83
2023-02-23T23:06:22.691Z,14.30
2023-02-23T23:08:24.902Z,14.50
2023-02-23T23:10:27.109Z,15.27
2023-02-23T23:12:29.343Z,14.93
2023-02-23T23:14:32.687Z,16.17
2023-02-23T23:16:36.729Z,14.17
2023-02-23T23:18:43.778Z,16.70
2023-02-23T23:20:46.215Z,16.30
2023-02-23T23:22:49.962Z,17.87
2023-02-23T23:24:52.554Z,16.43
2023-02-23T23:26:55.602Z,16.00
2023-02-23T23:29:00.338Z,17.50
2023-02-23T23:31:02.690Z,17.20
2023-02-23T23:33:05.030Z,14.87
2023-02-23T23:35:11.068Z,17.40
2023-02-23T23:37:13.957Z,17.43
2023-02-23T23:39:21.444Z,18.53
2023-02-23T23:41:25.490Z,18.00
2023-02-23T23:43:28.670Z,18.40
2023-02-23T23:45:31.032Z,17.60
2023-02-23T23:47:33.146Z,17.63
2023-02-23T23:49:39.839Z,17.70
2023-02-23T23:51:48.694Z,17.30
2023-02-23T23:53:55.016Z,17.53
2023-02-23T23:56:06.368Z,17.40
2023-02-23T23:58:08.542Z,17.23
